createdAt,value
2017-10-21T00:00:06.167Z,2.10
2017-10-21T00:02:32.816Z,2.53
2017-10-21T00:04:59.444Z,2.20
2017-10-21T00:07:26.134Z,2.50
2017-10-21T00:09:52.767Z,2.20
2017-10-21T00:12:19.420Z,2.40
2017-10-21T00:14:46.053Z,2.33
2017-10-21T00:17:12.682Z,2.20
2017-10-21T00:19:39.397Z,2.40
2017-10-21T00:22:06.024Z,2.73
2017-10-21T00:24:32.694Z,2.27
2017-10-21T00:26:59.325Z,2.63
2017-10-21T00:29:26.085Z,2.37
2017-10-21T00:31:52.721Z,2.43
2017-10-21T00:34:19.374Z,2.37
2017-10-21T00:36:46.005Z,2.23
2017-10-21T00:39:12.664Z,2.27
2017-10-21T00:41:39.345Z,2.40
2017-10-21T00:44:05.978Z,2.17
2017-10-21T00:46:32.646Z,2.27
2017-10-21T00:48:59.285Z,2.20
2017-10-21T00:51:25.932Z,2.50
2017-10-21T00:53:52.564Z,2.57
2017-10-21T00:56:19.207Z,2.10
2017-10-21T00:58:45.841Z,2.67
2017-10-21T01:01:12.502Z,2.50
2017-10-21T01:03:39.133Z,2.40
2017-10-21T01:06:05.772Z,2.40
2017-10-21T01:08:32.421Z,1.93
2017-10-21T01:10:59.152Z,2.50
2017-10-21T01:13:25.800Z,2.50
2017-10-21T01:15:52.432Z,1.80
2017-10-21T01:18:19.088Z,2.33
2017-10-21T01:20:45.752Z,2.50
2017-10-21T01:23:12.401Z,1.97
2017-10-21T01:25:39.048Z,2.43
2017-10-21T01:28:05.714Z,2.03
2017-10-21T01:30:32.387Z,1.80
2017-10-21T01:32:59.012Z,2.13
2017-10-21T01:35:25.670Z,2.00
2017-10-21T01:37:52.321Z,2.13
2017-10-21T01:40:18.962Z,2.20
2017-10-21T01:42:45.617Z,2.27
2017-10-21T01:45:12.250Z,2.30
2017-10-21T01:47:38.912Z,1.93
2017-10-21T01:50:05.542Z,2.33
2017-10-21T01:52:32.221Z,2.13
2017-10-21T01:54:58.863Z,1.60
2017-10-21T01:57:25.492Z,2.20
2017-10-21T01:59:52.145Z,2.60
2017-10-21T02:02:18.785Z,1.90
2017-10-21T02:04:45.441Z,1.83
2017-10-21T02:07:12.076Z,2.07
2017-10-21T02:09:38.724Z,2.50
2017-10-21T02:12:05.357Z,2.03
2017-10-21T02:14:32.020Z,2.67
2017-10-21T02:16:58.648Z,1.90
2017-10-21T02:19:25.368Z,2.00
2017-10-21T02:21:52.129Z,2.03
2017-10-21T02:24:18.759Z,2.40
2017-10-21T02:26:45.428Z,1.90
2017-10-21T02:29:12.064Z,2.30
2017-10-21T02:31:38.713Z,2.37
2017-10-21T02:34:05.376Z,2.00
2017-10-21T02:36:32.026Z,2.10
2017-10-21T02:38:58.666Z,2.40
2017-10-21T02:41:25.328Z,2.40
2017-10-21T02:43:51.991Z,2.23
2017-10-21T02:46:18.634Z,2.00
2017-10-21T02:48:45.348Z,2.50
2017-10-21T02:51:11.984Z,2.20
2017-10-21T02:53:38.631Z,1.83
2017-10-21T02:56:05.341Z,2.00
2017-10-21T02:58:32.093Z,2.07
2017-10-21T03:00:58.724Z,2.00
2017-10-21T03:03:25.376Z,1.77
2017-10-21T03:05:52.010Z,2.00
2017-10-21T03:08:18.644Z,1.83
2017-10-21T03:10:45.293Z,2.30
2017-10-21T03:13:11.924Z,1.73
2017-10-21T03:15:38.572Z,1.80
2017-10-21T03:18:05.209Z,2.37
2017-10-21T03:20:31.858Z,2.40
2017-10-21T03:22:58.489Z,1.90
2017-10-21T03:25:25.140Z,2.30
2017-10-21T03:27:51.776Z,2.10
2017-10-21T03:30:18.457Z,2.80
2017-10-21T03:32:45.112Z,2.40
2017-10-21T03:35:11.736Z,2.47
2017-10-21T03:37:38.384Z,2.20
2017-10-21T03:40:05.148Z,2.00
2017-10-21T03:42:31.813Z,1.93
2017-10-21T03:44:58.453Z,2.10
2017-10-21T03:47:25.082Z,2.20
2017-10-21T03:49:51.728Z,1.80
2017-10-21T03:52:18.356Z,2.00
2017-10-21T03:54:45.053Z,2.13
2017-10-21T03:57:11.685Z,2.07
2017-10-21T03:59:38.352Z,1.90
2017-10-21T04:02:04.994Z,2.53
2017-10-21T04:04:31.660Z,2.03
2017-10-21T04:06:58.302Z,2.17
2017-10-21T04:09:24.948Z,3.20
2017-10-21T04:11:51.585Z,2.10
2017-10-21T04:14:18.255Z,2.33
2017-10-21T04:16:44.888Z,2.27
2017-10-21T04:19:11.521Z,1.87
2017-10-21T04:21:38.172Z,2.10
2017-10-21T04:24:04.804Z,2.10
2017-10-21T04:26:31.458Z,2.00
2017-10-21T04:28:58.088Z,1.90
2017-10-21T04:31:24.736Z,2.13
2017-10-21T04:33:51.379Z,2.00
2017-10-21T04:36:18.117Z,2.00
2017-10-21T04:38:44.766Z,2.30
2017-10-21T04:41:11.424Z,1.70
2017-10-21T04:43:38.077Z,1.83
2017-10-21T04:46:04.708Z,2.13
2017-10-21T04:48:31.356Z,2.20
2017-10-21T04:50:57.988Z,2.40
2017-10-21T04:53:24.681Z,2.50
2017-10-21T04:55:51.312Z,3.30
2017-10-21T04:58:17.964Z,3.50
2017-10-21T05:00:44.620Z,2.57
2017-10-21T05:03:11.357Z,2.73
2017-10-21T05:05:37.992Z,2.50
2017-10-21T05:08:04.625Z,3.17
2017-10-21T05:10:31.328Z,2.60
2017-10-21T05:12:57.977Z,2.70
2017-10-21T05:15:24.634Z,2.70
2017-10-21T05:17:51.276Z,1.93
2017-10-21T05:20:17.930Z,2.10
2017-10-21T05:22:44.569Z,2.17
2017-10-21T05:25:11.233Z,2.33
2017-10-21T05:27:37.881Z,2.37
2017-10-21T05:30:04.517Z,2.40
2017-10-21T05:32:31.171Z,2.87
2017-10-21T05:34:57.806Z,2.87
2017-10-21T05:37:24.489Z,2.30
2017-10-21T05:39:51.133Z,2.40
2017-10-21T05:42:17.763Z,2.50
2017-10-21T05:44:44.413Z,2.30
2017-10-21T05:47:11.085Z,2.33
2017-10-21T05:49:37.741Z,2.10
2017-10-21T05:52:04.373Z,2.40
2017-10-21T05:54:31.026Z,1.90
2017-10-21T05:56:57.692Z,2.03
2017-10-21T05:59:24.442Z,2.53
2017-10-21T06:01:51.068Z,2.63
2017-10-21T06:04:17.705Z,2.27
2017-10-21T06:06:44.356Z,2.50
2017-10-21T06:09:10.989Z,2.20
2017-10-21T06:11:37.637Z,2.20
2017-10-21T06:14:04.543Z,1.93
2017-10-21T06:16:31.199Z,2.30
2017-10-21T06:18:57.825Z,2.53
2017-10-21T06:21:24.476Z,1.97
2017-10-21T06:23:51.109Z,2.37
2017-10-21T06:26:17.742Z,2.00
2017-10-21T06:28:44.465Z,2.33
2017-10-21T06:31:11.101Z,3.03
2017-10-21T06:33:37.749Z,2.10
2017-10-21T06:36:04.381Z,2.40
2017-10-21T06:38:31.041Z,2.00
2017-10-21T06:40:57.681Z,2.40
2017-10-21T06:43:24.369Z,2.17
2017-10-21T06:45:50.995Z,2.40
2017-10-21T06:48:17.629Z,1.87
2017-10-21T06:50:44.277Z,2.80
2017-10-21T06:53:10.913Z,2.50
2017-10-21T06:55:37.615Z,2.17
2017-10-21T06:58:04.243Z,1.77
2017-10-21T07:00:30.889Z,2.47
2017-10-21T07:02:57.522Z,2.50
2017-10-21T07:05:24.170Z,2.43
2017-10-21T07:07:50.797Z,1.87
2017-10-21T07:10:17.511Z,2.60
2017-10-21T07:12:44.204Z,2.30
2017-10-21T07:15:10.837Z,1.93
2017-10-21T07:17:37.484Z,2.60
2017-10-21T07:20:04.212Z,2.30
2017-10-21T07:22:30.965Z,2.70
2017-10-21T07:24:57.603Z,2.17
2017-10-21T07:27:24.257Z,2.40
2017-10-21T07:29:50.926Z,2.63
2017-10-21T07:32:17.577Z,2.17
2017-10-21T07:34:44.210Z,2.27
2017-10-21T07:37:10.841Z,2.10
2017-10-21T07:39:37.537Z,2.37
2017-10-21T07:42:04.172Z,2.30
2017-10-21T07:44:30.816Z,2.30
2017-10-21T07:46:57.448Z,2.20
2017-10-21T07:49:24.125Z,2.57
2017-10-21T07:51:50.761Z,2.20
2017-10-21T07:54:17.408Z,2.07
2017-10-21T07:56:44.036Z,2.47
2017-10-21T07:59:10.685Z,2.27
2017-10-21T08:01:37.337Z,1.97
2017-10-21T08:04:04.033Z,2.43
2017-10-21T08:06:30.741Z,1.93
2017-10-21T08:08:57.368Z,2.50
2017-10-21T08:11:24.015Z,2.37
2017-10-21T08:13:50.644Z,2.00
2017-10-21T08:16:17.310Z,2.37
2017-10-21T08:18:43.941Z,2.23
2017-10-21T08:21:10.586Z,2.13
2017-10-21T08:23:37.229Z,2.30
2017-10-21T08:26:03.989Z,2.30
2017-10-21T08:28:30.626Z,2.03
2017-10-21T08:30:57.264Z,2.27
2017-10-21T08:33:23.917Z,1.90
2017-10-21T08:35:50.551Z,1.90
2017-10-21T08:38:17.218Z,1.87
2017-10-21T08:40:43.852Z,2.00
2017-10-21T08:43:10.510Z,2.30
2017-10-21T08:45:37.149Z,1.93
2017-10-21T08:48:03.805Z,1.70
2017-10-21T08:50:30.453Z,1.90
2017-10-21T08:52:57.105Z,1.93
2017-10-21T08:55:23.736Z,1.93
2017-10-21T08:57:50.393Z,1.90
2017-10-21T09:00:17.026Z,2.20
2017-10-21T09:02:43.661Z,2.17
2017-10-21T09:05:10.397Z,2.03
2017-10-21T09:07:37.033Z,2.10
2017-10-21T09:10:03.691Z,2.50
2017-10-21T09:12:30.322Z,2.07
2017-10-21T09:14:56.981Z,2.20
2017-10-21T09:17:23.613Z,2.17
2017-10-21T09:19:50.266Z,2.10
2017-10-21T09:22:16.904Z,2.37
2017-10-21T09:24:43.552Z,2.53
2017-10-21T09:27:10.181Z,2.50
2017-10-21T09:29:36.840Z,2.27
2017-10-21T09:32:03.472Z,2.67
2017-10-21T09:34:30.112Z,3.30
2017-10-21T09:36:56.761Z,3.47
2017-10-21T09:39:23.515Z,5.00
2017-10-21T09:41:50.169Z,5.37
2017-10-21T09:44:16.908Z,4.77
2017-10-21T09:46:43.583Z,5.00
2017-10-21T09:49:10.217Z,4.50
2017-10-21T09:51:36.853Z,4.40
2017-10-21T09:54:03.514Z,4.43
2017-10-21T09:56:30.157Z,4.73
2017-10-21T09:58:56.823Z,5.07
2017-10-21T10:01:23.490Z,4.77
2017-10-21T10:03:50.165Z,4.77
2017-10-21T10:06:16.796Z,5.00
2017-10-21T10:08:43.493Z,4.40
2017-10-21T10:11:10.138Z,5.10
2017-10-21T10:13:36.785Z,4.40
2017-10-21T10:16:03.445Z,6.30
2017-10-21T10:18:30.072Z,3.37
2017-10-21T10:20:56.721Z,4.50
2017-10-21T10:23:23.425Z,4.30
2017-10-21T10:25:50.076Z,3.60
2017-10-21T10:28:16.714Z,3.97
2017-10-21T10:30:43.388Z,4.13
2017-10-21T10:33:10.024Z,4.50
2017-10-21T10:35:36.685Z,4.47
2017-10-21T10:38:03.426Z,4.07
2017-10-21T10:40:30.056Z,4.40
2017-10-21T10:42:56.708Z,3.80
2017-10-21T10:45:23.340Z,4.30
2017-10-21T10:47:49.988Z,4.17
2017-10-21T10:50:16.948Z,4.53
2017-10-21T10:52:43.597Z,4.23
2017-10-21T10:55:10.231Z,4.20
2017-10-21T10:57:36.893Z,4.10
2017-10-21T11:00:03.530Z,3.97
2017-10-21T11:02:30.203Z,4.07
2017-10-21T11:04:56.893Z,4.00
2017-10-21T11:07:23.524Z,4.13
2017-10-21T11:09:50.176Z,4.40
2017-10-21T11:12:16.808Z,3.70
2017-10-21T11:14:43.470Z,4.63
2017-10-21T11:17:10.105Z,4.50
2017-10-21T11:19:36.771Z,4.07
2017-10-21T11:22:03.407Z,3.93
2017-10-21T11:24:30.078Z,4.20
2017-10-21T11:26:56.739Z,4.23
2017-10-21T11:29:23.397Z,3.50
2017-10-21T11:31:50.025Z,3.70
2017-10-21T11:34:16.661Z,3.77
2017-10-21T11:36:43.948Z,4.43
2017-10-21T11:39:10.580Z,4.80
2017-10-21T11:41:37.237Z,3.97
2017-10-21T11:44:03.868Z,4.13
2017-10-21T11:46:30.524Z,4.60
2017-10-21T11:48:57.165Z,4.57
2017-10-21T11:51:23.798Z,3.50
2017-10-21T11:53:50.449Z,4.67
2017-10-21T11:56:17.080Z,4.07
2017-10-21T11:58:43.725Z,3.70
2017-10-21T12:01:10.361Z,3.30
2017-10-21T12:03:37.009Z,3.60
2017-10-21T12:06:03.645Z,9.00
2017-10-21T12:08:30.304Z,35.57
2017-10-21T12:10:57.084Z,4.37
2017-10-21T12:13:23.720Z,4.70
2017-10-21T12:15:50.373Z,21.83
2017-10-21T12:18:17.025Z,36.40
2017-10-21T12:20:43.690Z,201.50
2017-10-21T12:23:10.429Z,234.77
2017-10-21T12:25:37.091Z,31.23
2017-10-21T12:28:03.832Z,49.33
2017-10-21T12:30:30.590Z,75.77
2017-10-21T12:32:57.236Z,98.43
2017-10-21T12:35:23.877Z,47.53
2017-10-21T12:37:50.545Z,115.93
2017-10-21T12:40:17.217Z,81.90
2017-10-21T12:42:43.873Z,46.40
2017-10-21T12:45:10.589Z,40.40
2017-10-21T12:47:37.249Z,24.60
2017-10-21T12:50:03.990Z,18.73
2017-10-21T12:52:30.650Z,13.43
2017-10-21T12:54:57.295Z,4.53
2017-10-21T12:57:23.951Z,5.20
2017-10-21T12:59:50.624Z,5.47
2017-10-21T13:02:17.266Z,4.03
2017-10-21T13:04:43.996Z,4.60
2017-10-21T13:07:10.637Z,4.70
2017-10-21T13:09:37.288Z,3.53
2017-10-21T13:12:03.925Z,3.30
2017-10-21T13:14:30.572Z,3.90
2017-10-21T13:16:57.255Z,3.70
2017-10-21T13:19:23.897Z,3.20
2017-10-21T13:21:50.648Z,3.50
2017-10-21T13:24:17.318Z,3.13
2017-10-21T13:26:44.061Z,3.50
2017-10-21T13:29:10.745Z,3.37
2017-10-21T13:31:37.401Z,3.07
2017-10-21T13:34:04.033Z,3.70
2017-10-21T13:36:30.660Z,3.37
2017-10-21T13:38:57.333Z,3.70
2017-10-21T13:41:23.969Z,3.87
2017-10-21T13:43:50.712Z,3.20
2017-10-21T13:46:17.353Z,4.10
2017-10-21T13:48:44.021Z,3.70
2017-10-21T13:51:10.673Z,3.60
2017-10-21T13:53:37.316Z,3.00
2017-10-21T13:56:03.980Z,3.40
2017-10-21T13:58:30.881Z,3.10
2017-10-21T14:00:57.578Z,3.70
2017-10-21T14:03:24.204Z,3.53
2017-10-21T14:05:50.857Z,3.27
2017-10-21T14:08:17.497Z,3.60
2017-10-21T14:10:44.152Z,3.90
2017-10-21T14:13:10.788Z,4.30
2017-10-21T14:15:38.282Z,4.57
2017-10-21T14:18:04.909Z,4.50
2017-10-21T14:20:31.565Z,4.57
2017-10-21T14:22:58.225Z,5.97
2017-10-21T14:25:24.860Z,3.90
2017-10-21T14:27:51.555Z,4.27
2017-10-21T14:30:18.189Z,3.80
2017-10-21T14:32:44.877Z,4.03
2017-10-21T14:35:11.522Z,4.07
2017-10-21T14:37:38.242Z,4.30
2017-10-21T14:40:04.962Z,3.30
2017-10-21T14:42:31.632Z,5.13
2017-10-21T14:44:58.292Z,4.07
2017-10-21T14:47:24.936Z,4.30
2017-10-21T14:49:51.641Z,3.20
2017-10-21T14:52:18.276Z,3.03
2017-10-21T14:54:45.233Z,4.03
2017-10-21T14:57:11.865Z,3.67
2017-10-21T14:59:38.533Z,4.40
2017-10-21T15:02:05.265Z,3.27
2017-10-21T15:04:32.001Z,3.20
2017-10-21T15:06:58.636Z,4.23
2017-10-21T15:09:25.288Z,3.80
2017-10-21T15:11:51.930Z,3.83
2017-10-21T15:14:18.650Z,4.10
2017-10-21T15:16:45.300Z,3.53
2017-10-21T15:19:11.932Z,3.70
2017-10-21T15:21:38.582Z,3.20
2017-10-21T15:24:05.221Z,3.33
2017-10-21T15:26:31.975Z,3.50
2017-10-21T15:28:58.699Z,3.23
2017-10-21T15:31:25.484Z,2.70
2017-10-21T15:33:52.136Z,3.37
2017-10-21T15:36:19.673Z,3.20
2017-10-21T15:38:46.300Z,2.53
2017-10-21T15:41:13.772Z,2.60
2017-10-21T15:43:40.427Z,3.10
2017-10-21T15:46:07.056Z,3.23
2017-10-21T15:48:33.769Z,3.47
2017-10-21T15:51:00.401Z,3.20
2017-10-21T15:53:27.081Z,2.93
2017-10-21T15:55:53.794Z,2.70
2017-10-21T15:58:20.434Z,3.73
2017-10-21T16:00:47.172Z,2.87
2017-10-21T16:03:13.896Z,2.73
2017-10-21T16:05:40.651Z,2.70
2017-10-21T16:08:07.280Z,3.10
2017-10-21T16:10:33.920Z,3.90
2017-10-21T16:13:00.600Z,2.80
2017-10-21T16:15:27.246Z,3.13
2017-10-21T16:17:54.741Z,2.70
2017-10-21T16:20:21.464Z,2.80
2017-10-21T16:22:48.765Z,2.83
2017-10-21T16:25:15.397Z,4.30
2017-10-21T16:27:43.054Z,3.77
2017-10-21T16:30:09.976Z,3.20
2017-10-21T16:32:36.629Z,3.23
2017-10-21T16:35:03.261Z,3.00
2017-10-21T16:37:29.913Z,2.97
2017-10-21T16:39:56.558Z,2.90
2017-10-21T16:42:23.205Z,2.63
2017-10-21T16:44:49.854Z,2.93
2017-10-21T16:47:16.590Z,3.90
2017-10-21T16:49:43.230Z,2.87
2017-10-21T16:52:09.864Z,3.43
2017-10-21T16:54:36.540Z,3.20
2017-10-21T16:57:03.176Z,2.83
2017-10-21T16:59:29.829Z,6.17
2017-10-21T17:01:56.468Z,17.50
2017-10-21T17:04:23.124Z,28.27
2017-10-21T17:06:49.766Z,59.63
2017-10-21T17:09:16.449Z,33.30
2017-10-21T17:11:43.101Z,55.60
2017-10-21T17:14:09.832Z,67.63
2017-10-21T17:16:36.472Z,54.97
2017-10-21T17:19:03.149Z,62.00
2017-10-21T17:21:29.797Z,64.10
2017-10-21T17:23:56.446Z,65.37
2017-10-21T17:26:23.109Z,68.67
2017-10-21T17:28:49.762Z,69.53
2017-10-21T17:31:16.429Z,72.17
2017-10-21T17:33:43.076Z,67.17
2017-10-21T17:36:09.753Z,59.80
2017-10-21T17:38:36.403Z,66.30
2017-10-21T17:41:03.061Z,64.87
2017-10-21T17:43:29.709Z,61.33
2017-10-21T17:45:56.392Z,67.53
2017-10-21T17:48:23.054Z,61.00
2017-10-21T17:50:49.700Z,62.20
2017-10-21T17:53:16.374Z,61.17
2017-10-21T17:55:43.018Z,62.50
2017-10-21T17:58:09.680Z,62.50
2017-10-21T18:00:36.339Z,58.13
2017-10-21T18:03:03.008Z,60.63
2017-10-21T18:05:29.710Z,58.40
2017-10-21T18:07:56.385Z,55.43
2017-10-21T18:10:23.096Z,49.00
2017-10-21T18:12:50.546Z,55.17
2017-10-21T18:15:17.231Z,56.67
2017-10-21T18:17:43.880Z,54.57
2017-10-21T18:20:10.636Z,52.10
2017-10-21T18:22:37.298Z,53.70
2017-10-21T18:25:04.032Z,52.47
2017-10-21T18:27:30.673Z,52.20
2017-10-21T18:29:57.332Z,51.07
2017-10-21T18:32:23.977Z,52.63
2017-10-21T18:34:51.474Z,50.37
2017-10-21T18:37:18.122Z,48.10
2017-10-21T18:39:44.860Z,50.60
2017-10-21T18:42:11.518Z,50.90
2017-10-21T18:44:38.837Z,50.17
2017-10-21T18:47:05.501Z,50.03
2017-10-21T18:49:32.141Z,50.90
2017-10-21T18:51:59.672Z,51.20
2017-10-21T18:54:26.317Z,49.17
2017-10-21T18:56:53.052Z,50.00
2017-10-21T18:59:19.794Z,47.23
2017-10-21T19:01:46.509Z,49.50
2017-10-21T19:04:13.148Z,47.37
2017-10-21T19:06:39.877Z,45.60
2017-10-21T19:09:06.540Z,44.30
2017-10-21T19:11:33.263Z,44.80
2017-10-21T19:13:59.925Z,45.10
2017-10-21T19:16:26.563Z,44.43
2017-10-21T19:18:53.228Z,45.43
2017-10-21T19:21:19.878Z,44.00
2017-10-21T19:23:46.532Z,44.33
2017-10-21T19:26:13.179Z,44.10
2017-10-21T19:28:39.925Z,43.90
2017-10-21T19:31:06.568Z,41.10
2017-10-21T19:33:33.232Z,43.30
2017-10-21T19:35:59.898Z,43.50
2017-10-21T19:38:26.562Z,43.87
2017-10-21T19:40:53.282Z,43.83
2017-10-21T19:43:19.936Z,40.33
2017-10-21T19:45:47.685Z,41.17
2017-10-21T19:48:15.230Z,39.57
2017-10-21T19:50:41.897Z,40.27
2017-10-21T19:53:08.540Z,41.63
2017-10-21T19:55:35.285Z,40.97
2017-10-21T19:58:01.933Z,39.37
2017-10-21T20:00:28.653Z,41.03
2017-10-21T20:02:55.337Z,40.03
2017-10-21T20:05:22.033Z,38.37
2017-10-21T20:07:48.821Z,37.13
2017-10-21T20:10:15.474Z,38.63
2017-10-21T20:12:42.193Z,38.50
2017-10-21T20:15:08.834Z,36.60
2017-10-21T20:17:35.488Z,36.27
2017-10-21T20:20:02.134Z,38.43
2017-10-21T20:22:28.880Z,36.90
2017-10-21T20:24:55.576Z,34.73
2017-10-21T20:27:22.224Z,35.20
2017-10-21T20:29:48.881Z,33.47
2017-10-21T20:32:15.530Z,33.13
2017-10-21T20:34:42.218Z,34.80
2017-10-21T20:37:08.877Z,33.93
2017-10-21T20:39:35.541Z,35.50
2017-10-21T20:42:02.193Z,34.70
2017-10-21T20:44:28.852Z,34.53
2017-10-21T20:46:55.571Z,34.50
2017-10-21T20:49:22.438Z,32.93
2017-10-21T20:51:49.105Z,36.03
2017-10-21T20:54:16.310Z,32.37
2017-10-21T20:56:42.973Z,34.43
2017-10-21T20:59:09.661Z,32.17
2017-10-21T21:01:36.349Z,35.97
2017-10-21T21:04:04.670Z,36.17
2017-10-21T21:06:31.344Z,32.70
2017-10-21T21:08:58.025Z,37.93
2017-10-21T21:11:25.568Z,37.67
2017-10-21T21:13:52.225Z,33.93
2017-10-21T21:16:18.881Z,34.13
2017-10-21T21:18:45.649Z,35.20
2017-10-21T21:21:12.288Z,39.50
2017-10-21T21:23:38.962Z,38.20
2017-10-21T21:26:05.608Z,35.00
2017-10-21T21:28:32.352Z,35.43
2017-10-21T21:30:58.998Z,35.53
2017-10-21T21:33:25.669Z,35.90
2017-10-21T21:35:52.322Z,37.13
2017-10-21T21:38:18.965Z,37.63
2017-10-21T21:40:45.713Z,36.73
2017-10-21T21:43:12.354Z,37.53
2017-10-21T21:45:39.115Z,36.40
2017-10-21T21:48:05.797Z,36.33
2017-10-21T21:50:32.517Z,35.67
2017-10-21T21:52:59.165Z,35.90
2017-10-21T21:55:25.840Z,33.60
2017-10-21T21:57:52.565Z,35.47
2017-10-21T22:00:19.209Z,34.63
2017-10-21T22:02:45.876Z,33.87
2017-10-21T22:05:12.516Z,33.10
2017-10-21T22:07:39.222Z,38.97
2017-10-21T22:10:05.918Z,49.50
2017-10-21T22:12:32.589Z,38.40
2017-10-21T22:14:59.233Z,38.03
2017-10-21T22:17:25.934Z,37.70
2017-10-21T22:19:54.353Z,38.23
2017-10-21T22:22:21.017Z,36.97
2017-10-21T22:24:47.677Z,35.93
2017-10-21T22:27:14.318Z,35.47
2017-10-21T22:29:40.976Z,29.90
2017-10-21T22:32:07.623Z,34.37
2017-10-21T22:34:34.288Z,34.90
2017-10-21T22:37:01.948Z,34.73
2017-10-21T22:39:28.613Z,35.23
2017-10-21T22:41:55.285Z,35.00
2017-10-21T22:44:22.005Z,33.93
2017-10-21T22:46:48.761Z,32.33
2017-10-21T22:49:15.404Z,32.43
2017-10-21T22:51:42.066Z,33.03
2017-10-21T22:54:08.802Z,32.37
2017-10-21T22:56:35.468Z,31.40
2017-10-21T22:59:02.321Z,34.20
2017-10-21T23:01:28.988Z,30.50
2017-10-21T23:03:55.730Z,32.67
2017-10-21T23:06:22.441Z,31.27
2017-10-21T23:08:49.101Z,32.07
2017-10-21T23:11:16.470Z,32.07
2017-10-21T23:13:43.133Z,32.10
2017-10-21T23:16:09.793Z,30.50
2017-10-21T23:18:36.553Z,29.27
2017-10-21T23:21:03.194Z,30.50
2017-10-21T23:23:29.973Z,32.03
2017-10-21T23:25:56.634Z,27.27
2017-10-21T23:28:23.301Z,28.50
2017-10-21T23:30:49.976Z,29.17
2017-10-21T23:33:16.676Z,29.90
2017-10-21T23:35:43.385Z,30.00
2017-10-21T23:38:10.056Z,29.00
2017-10-21T23:40:36.729Z,28.70
2017-10-21T23:43:03.377Z,30.30
2017-10-21T23:45:30.033Z,28.73
2017-10-21T23:47:56.688Z,25.23
2017-10-21T23:50:23.418Z,25.60
2017-10-21T23:52:50.075Z,19.70
2017-10-21T23:55:16.829Z,25.27
2017-10-21T23:57:43.482Z,27.23
